Time;durP1;ratioP1;P1;durP2;ratioP2;P2;SDS_P1;SDS_P2;PMS_P1;PMS_P2;Temp;Humidity;BMP_temperature;BMP_pressure;BME280_temperature;BME280_humidity;BME280_pressure;Samples;Min_cycle;Max_cycle;Signal;HPM_P1;HPM_P2
2024/04/17 00:00:32;;;;;;;;;;;;;;;16.04;56.04;99468.84;5386417;26;1833;-42
2024/04/17 00:02:57;;;;;;;;;;;;;;;16.03;55.93;99468.06;5386587;26;1247;-45
2024/04/17 00:05:23;;;;;;;;;;;;;;;16.77;56.53;99463.59;5386297;26;1168;-43
2024/04/17 00:07:48;;;;;;;;;;;;;;;17.68;55.26;99470.06;5385993;26;1119;-45
2024/04/17 00:10:14;;;;;;;;;;;;;;;16.89;56.65;99463.91;5386194;26;1191;-43
2024/04/17 00:12:39;;;;;;;;;;;;;;;16.63;56.80;99469.09;5386212;26;1136;-46
2024/04/17 00:15:05;;;;;;;;;;;;;;;16.48;56.60;99475.72;5386267;26;1296;-45
2024/04/17 00:17:30;;;;;;;;;;;;;;;16.38;56.45;99467.66;5386556;26;1128;-46
2024/04/17 00:19:56;;;;;;;;;;;;;;;16.20;56.39;99455.66;5385341;26;1833;-44
2024/04/17 00:22:21;;;;;;;;;;;;;;;16.25;56.04;99469.28;5386225;26;1172;-44
2024/04/17 00:24:47;;;;;;;;;;;;;;;16.19;55.89;99467.78;5386790;26;1220;-45
2024/04/17 00:27:12;;;;;;;;;;;;;;;16.35;56.78;99463.59;5386242;26;1169;-43
2024/04/17 00:29:38;;;;;;;;;;;;;;;17.71;55.42;99468.63;5385903;26;1255;-44
2024/04/17 00:32:05;;;;;;;;;;;;;;;17.05;56.30;99461.63;5385806;26;1093;-45
2024/04/17 00:34:30;;;;;;;;;;;;;;;16.67;56.87;99461.88;5386271;26;1242;-44
2024/04/17 00:36:56;;;;;;;;;;;;;;;16.53;56.41;99448.16;5386422;26;1172;-45
2024/04/17 00:39:22;;;;;;;;;;;;;;;16.38;56.45;99430.09;5385844;26;1863;-45
2024/04/17 00:41:48;;;;;;;;;;;;;;;16.30;56.23;99414.34;5386253;26;1156;-44
2024/04/17 00:44:14;;;;;;;;;;;;;;;16.17;56.41;99401.44;5385566;26;1106;-42
2024/04/17 00:46:39;;;;;;;;;;;;;;;16.16;56.26;99417.06;5379490;26;1532;-47
2024/04/17 00:49:05;;;;;;;;;;;;;;;16.07;56.05;99419.72;5386077;26;1246;-45
2024/04/17 00:51:30;;;;;;;;;;;;;;;16.12;56.37;99404.25;5385497;26;1159;-43
2024/04/17 00:53:56;;;;;;;;;;;;;;;17.43;55.91;99409.13;5383762;26;1633;-48
2024/04/17 00:56:21;;;;;;;;;;;;;;;17.24;55.97;99406.56;5354000;26;1141;-47
2024/04/17 00:58:47;;;;;;;;;;;;;;;16.71;56.95;99415.41;5383965;26;1829;-47
2024/04/17 01:01:12;;;;;;;;;;;;;;;16.57;56.54;99388.00;5381482;26;1695;-47
2024/04/17 01:03:38;;;;;;;;;;;;;;;16.41;56.63;99434.97;5383715;26;1182;-45
2024/04/17 01:06:03;;;;;;;;;;;;;;;16.31;56.59;99461.78;5361628;26;1819;-45
2024/04/17 01:08:29;;;;;;;;;;;;;;;16.28;56.14;99445.94;5384851;26;1093;-46
2024/04/17 01:11:00;;;;;;;;;;;;;;;16.16;56.23;99433.53;5385276;26;1117;-45
2024/04/17 01:13:26;;;;;;;;;;;;;;;16.85;56.67;99415.41;5385213;26;1216;-46
2024/04/17 01:15:51;;;;;;;;;;;;;;;17.74;55.15;99424.84;5385505;26;1167;-43
2024/04/17 01:18:17;;;;;;;;;;;;;;;17.01;56.47;99422.22;5385318;26;1137;-46
2024/04/17 01:20:43;;;;;;;;;;;;;;;16.66;56.82;99412.78;5385233;26;1836;-44
2024/04/17 01:23:08;;;;;;;;;;;;;;;16.49;56.62;99413.41;5379604;26;1397;-44
2024/04/17 01:25:34;;;;;;;;;;;;;;;16.38;56.44;99408.16;5383731;26;1788;-42
2024/04/17 01:27:59;;;;;;;;;;;;;;;16.23;56.57;99411.19;5385144;26;1231;-43
2024/04/17 01:30:25;;;;;;;;;;;;;;;16.24;55.91;99424.59;5372231;26;1389;-44
2024/04/17 01:32:50;;;;;;;;;;;;;;;16.15;56.27;99393.50;5384953;26;1262;-42
2024/04/17 01:35:16;;;;;;;;;;;;;;;16.16;56.16;99369.63;5377372;26;1418;-42
2024/04/17 01:37:41;;;;;;;;;;;;;;;17.42;56.06;99363.53;5367602;26;1154;-42
2024/04/17 01:40:07;;;;;;;;;;;;;;;17.22;56.19;99380.50;5385305;26;1856;-47
2024/04/17 01:42:32;;;;;;;;;;;;;;;16.73;56.88;99389.28;5383884;26;1279;-42
2024/04/17 01:44:58;;;;;;;;;;;;;;;16.57;56.52;99374.28;5378606;26;1406;-45
2024/04/17 01:47:23;;;;;;;;;;;;;;;16.38;56.75;99371.66;5378651;26;1187;-46
2024/04/17 01:49:49;;;;;;;;;;;;;;;16.31;56.50;99357.53;5384826;26;1167;-43
2024/04/17 01:52:14;;;;;;;;;;;;;;;16.25;56.34;99359.56;5385013;26;1179;-41
2024/04/17 01:54:40;;;;;;;;;;;;;;;16.19;56.07;99355.31;5384610;26;1228;-43
2024/04/17 01:57:05;;;;;;;;;;;;;;;16.10;55.99;99362.63;5385150;26;1309;-43
2024/04/17 01:59:31;;;;;;;;;;;;;;;16.07;56.06;99381.34;5385211;26;1829;-43
2024/04/17 02:01:56;;;;;;;;;;;;;;;16.30;56.59;99384.16;5384832;26;1175;-46
2024/04/17 02:04:22;;;;;;;;;;;;;;;17.62;55.64;99369.63;5385180;26;1168;-43
2024/04/17 02:06:47;;;;;;;;;;;;;;;17.17;56.43;99372.41;5386294;26;1575;-42
2024/04/17 02:09:13;;;;;;;;;;;;;;;16.79;56.71;99373.53;5388265;26;1159;-47
2024/04/17 02:11:38;;;;;;;;;;;;;;;16.51;56.78;99370.00;5387956;26;1196;-45
2024/04/17 02:14:04;;;;;;;;;;;;;;;16.38;56.68;99363.41;5388010;26;1502;-45
2024/04/17 02:16:29;;;;;;;;;;;;;;;16.24;56.65;99367.00;5388113;26;1289;-45
2024/04/17 02:18:55;;;;;;;;;;;;;;;16.22;56.22;99371.16;5387525;26;1837;-42
2024/04/17 02:21:20;;;;;;;;;;;;;;;16.11;56.27;99375.22;5387797;26;1276;-42
2024/04/17 02:23:46;;;;;;;;;;;;;;;16.12;56.04;99368.59;5387840;26;1274;-45
2024/04/17 02:26:12;;;;;;;;;;;;;;;16.95;56.87;99360.28;5387939;26;1267;-45
2024/04/17 02:28:37;;;;;;;;;;;;;;;17.52;55.95;99358.91;5388428;26;1196;-47
2024/04/17 02:31:03;;;;;;;;;;;;;;;16.84;56.84;99347.88;5387275;26;1160;-44
2024/04/17 02:33:28;;;;;;;;;;;;;;;16.61;56.67;99345.09;5387810;26;1230;-45
2024/04/17 02:35:54;;;;;;;;;;;;;;;16.45;56.57;99354.78;5387801;26;1219;-42
2024/04/17 02:38:19;;;;;;;;;;;;;;;16.29;56.61;99346.88;5387569;26;1190;-43
2024/04/17 02:40:45;;;;;;;;;;;;;;;16.16;56.73;99354.00;5386325;26;1822;-47
2024/04/17 02:43:10;;;;;;;;;;;;;;;16.17;56.07;99338.34;5387097;26;1488;-44
2024/04/17 02:45:36;;;;;;;;;;;;;;;16.07;55.97;99353.91;5387336;26;1277;-48
2024/04/17 02:48:01;;;;;;;;;;;;;;;16.04;55.99;99357.25;5387767;26;1097;-46
2024/04/17 02:50:27;;;;;;;;;;;;;;;16.86;56.72;99356.63;5387539;26;1220;-43
2024/04/17 02:52:52;;;;;;;;;;;;;;;17.90;55.19;99352.94;5387476;26;1152;-46
2024/04/17 02:55:18;;;;;;;;;;;;;;;17.02;56.78;99359.84;5386815;26;1247;-46
2024/04/17 02:57:43;;;;;;;;;;;;;;;16.71;56.87;99366.81;5384330;26;1287;-47
2024/04/17 03:00:09;;;;;;;;;;;;;;;16.53;56.58;99371.31;5387365;26;1863;-45
2024/04/17 03:02:34;;;;;;;;;;;;;;;16.39;56.55;99371.34;5387211;26;1501;-48
2024/04/17 03:05:00;;;;;;;;;;;;;;;16.21;56.45;99375.81;5386988;26;1124;-43
2024/04/17 03:07:26;;;;;;;;;;;;;;;16.17;56.27;99371.25;5387251;26;1238;-48
2024/04/17 03:09:51;;;;;;;;;;;;;;;16.23;55.83;99361.81;5387074;26;1274;-47
2024/04/17 03:12:17;;;;;;;;;;;;;;;16.04;56.06;99354.50;5387336;26;1322;-48
2024/04/17 03:14:42;;;;;;;;;;;;;;;16.97;56.89;99338.81;5386927;26;1125;-46
2024/04/17 03:17:08;;;;;;;;;;;;;;;17.48;55.95;99333.19;5386552;26;1168;-45
2024/04/17 03:19:34;;;;;;;;;;;;;;;16.79;56.87;99320.53;5386482;26;1829;-43
2024/04/17 03:21:59;;;;;;;;;;;;;;;16.56;56.89;99317.75;5387241;26;1272;-45
2024/04/17 03:24:25;;;;;;;;;;;;;;;16.40;56.67;99320.84;5387275;26;1137;-46
2024/04/17 03:26:50;;;;;;;;;;;;;;;16.34;56.42;99330.31;5386807;26;1136;-48
2024/04/17 03:29:16;;;;;;;;;;;;;;;16.25;56.15;99321.19;5387107;26;1180;-49
2024/04/17 03:31:41;;;;;;;;;;;;;;;16.16;56.19;99317.53;5386856;26;1274;-47
2024/04/17 03:34:06;;;;;;;;;;;;;;;16.05;55.96;99325.97;5387263;26;1172;-48
2024/04/17 03:36:32;;;;;;;;;;;;;;;17.19;56.69;99326.19;5386524;26;1311;-44
2024/04/17 03:38:57;;;;;;;;;;;;;;;17.30;56.46;99341.31;5386947;26;1817;-46
2024/04/17 03:41:23;;;;;;;;;;;;;;;16.75;56.99;99345.88;5384728;26;1494;-46
2024/04/17 03:43:49;;;;;;;;;;;;;;;16.61;56.71;99336.88;5382407;26;1187;-43
2024/04/17 03:46:14;;;;;;;;;;;;;;;16.47;56.42;99347.06;5384888;26;1671;-48
2024/04/17 03:48:40;;;;;;;;;;;;;;;16.36;56.40;99341.78;5383587;26;1799;-45
2024/04/17 03:51:05;;;;;;;;;;;;;;;16.19;56.31;99339.66;5383828;26;1149;-46
2024/04/17 03:53:31;;;;;;;;;;;;;;;16.10;56.20;99344.25;5383013;26;1570;-44
2024/04/17 03:55:56;;;;;;;;;;;;;;;16.16;56.67;99344.94;5385296;26;1191;-49
2024/04/17 03:58:22;;;;;;;;;;;;;;;17.51;56.17;99357.28;5386326;26;1164;-44
2024/04/17 04:00:47;;;;;;;;;;;;;;;17.06;56.80;99372.63;5382334;26;1858;-45
2024/04/17 04:03:13;;;;;;;;;;;;;;;16.70;56.81;99372.63;5384913;26;1196;-48
2024/04/17 04:05:42;;;;;;;;;;;;;;;17.04;57.82;99357.59;5383863;26;1517;-48
2024/04/17 04:08:07;;;;;;;;;;;;;;;17.15;56.24;99347.97;5384090;26;1171;-44
2024/04/17 04:10:33;;;;;;;;;;;;;;;16.66;54.40;99355.97;5384845;26;1379;-45
2024/04/17 04:12:58;;;;;;;;;;;;;;;16.46;52.85;99370.13;5384274;26;1289;-45
2024/04/17 04:15:24;;;;;;;;;;;;;;;16.40;51.47;99372.16;5385085;26;1120;-48
2024/04/17 04:17:49;;;;;;;;;;;;;;;16.32;50.62;99370.94;5385330;26;1112;-49
2024/04/17 04:20:15;;;;;;;;;;;;;;;16.28;49.87;99364.44;5385410;26;1825;-45
2024/04/17 04:22:42;;;;;;;;;;;;;;;16.99;53.16;99361.28;5386086;26;1325;-44
2024/04/17 04:25:07;;;;;;;;;;;;;;;16.53;52.35;99367.78;5386282;26;1192;-46
2024/04/17 04:27:33;;;;;;;;;;;;;;;16.39;51.09;99387.81;5385644;26;1109;-45
2024/04/17 04:29:58;;;;;;;;;;;;;;;16.38;49.80;99372.47;5385913;26;1289;-45
2024/04/17 04:32:24;;;;;;;;;;;;;;;16.26;49.24;99369.44;5385262;26;1330;-45
2024/04/17 04:34:49;;;;;;;;;;;;;;;16.24;48.60;99367.00;5386739;26;1188;-47
2024/04/17 04:37:15;;;;;;;;;;;;;;;16.25;48.10;99370.53;5385555;26;1117;-45
2024/04/17 04:39:41;;;;;;;;;;;;;;;16.94;50.42;99366.88;5385087;26;1838;-46
2024/04/17 04:42:07;;;;;;;;;;;;;;;16.55;50.19;99376.50;5385914;26;1317;-48
2024/04/17 04:44:33;;;;;;;;;;;;;;;16.38;49.37;99375.22;5385329;26;1273;-43
2024/04/17 04:47:01;;;;;;;;;;;;;;;16.34;48.58;99379.69;5385906;26;1551;-46
2024/04/17 04:49:27;;;;;;;;;;;;;;;16.81;49.94;99375.97;5385658;26;1325;-47
2024/04/17 04:51:52;;;;;;;;;;;;;;;16.75;50.70;99387.03;5385885;26;1354;-43
2024/04/17 04:54:18;;;;;;;;;;;;;;;16.45;49.89;99402.22;5385987;26;1277;-46
2024/04/17 04:56:44;;;;;;;;;;;;;;;16.38;49.12;99410.88;5385294;26;1429;-43
2024/04/17 04:59:09;;;;;;;;;;;;;;;16.29;48.42;99398.19;5385318;26;1865;-49
2024/04/17 05:01:35;;;;;;;;;;;;;;;16.24;47.81;99402.66;5385495;26;1194;-47
2024/04/17 05:04:01;;;;;;;;;;;;;;;16.21;47.43;99397.75;5385321;26;1512;-43
2024/04/17 05:06:26;;;;;;;;;;;;;;;17.00;49.62;99400.53;5385451;26;1329;-45
2024/04/17 05:08:52;;;;;;;;;;;;;;;16.55;49.72;99407.50;5384726;26;1166;-48
2024/04/17 05:11:17;;;;;;;;;;;;;;;16.45;48.77;99398.69;5385451;26;1422;-48
2024/04/17 05:13:43;;;;;;;;;;;;;;;16.38;48.15;99388.94;5385444;26;1188;-49
2024/04/17 05:16:08;;;;;;;;;;;;;;;16.92;49.78;99383.66;5385196;26;1536;-46
2024/04/17 05:18:34;;;;;;;;;;;;;;;16.55;49.40;99382.00;5385496;26;1880;-45
2024/04/17 05:20:59;;;;;;;;;;;;;;;16.46;48.79;99370.13;5384860;26;1560;-43
2024/04/17 05:23:25;;;;;;;;;;;;;;;16.88;49.40;99376.34;5385379;26;1175;-44
2024/04/17 05:25:50;;;;;;;;;;;;;;;16.97;49.89;99380.00;5385868;26;1579;-45
2024/04/17 05:28:16;;;;;;;;;;;;;;;16.70;49.41;99373.41;5385070;26;1367;-44
2024/04/17 05:30:41;;;;;;;;;;;;;;;16.55;48.73;99376.50;5385037;26;1220;-45
2024/04/17 05:33:07;;;;;;;;;;;;;;;16.53;47.83;99376.00;5385059;26;1514;-45
2024/04/17 05:35:32;;;;;;;;;;;;;;;16.32;47.76;99361.91;5385355;26;1192;-44
2024/04/17 05:37:58;;;;;;;;;;;;;;;16.31;47.30;99355.59;5384962;26;1167;-44
2024/04/17 05:40:23;;;;;;;;;;;;;;;16.35;46.79;99348.38;5384887;26;1829;-45
2024/04/17 05:42:49;;;;;;;;;;;;;;;16.36;46.54;99352.75;5388424;26;1362;-45
2024/04/17 05:45:14;;;;;;;;;;;;;;;16.24;46.38;99358.78;5388054;26;1585;-42
2024/04/17 05:47:40;;;;;;;;;;;;;;;17.51;48.74;99369.06;5388153;26;1180;-44
2024/04/17 05:50:05;;;;;;;;;;;;;;;16.82;49.50;99367.41;5388447;26;1325;-47
2024/04/17 05:52:31;;;;;;;;;;;;;;;16.54;48.84;99350.19;5388096;26;1295;-46
2024/04/17 05:54:56;;;;;;;;;;;;;;;16.43;48.13;99364.13;5387929;26;1179;-46
2024/04/17 05:57:22;;;;;;;;;;;;;;;16.94;48.56;99358.63;5387128;26;1123;-46
2024/04/17 05:59:47;;;;;;;;;;;;;;;16.89;49.35;99347.81;5388019;26;1856;-46
2024/04/17 06:02:13;;;;;;;;;;;;;;;16.66;48.84;99346.91;5388158;26;1280;-48
2024/04/17 06:04:39;;;;;;;;;;;;;;;16.47;48.29;99328.66;5388232;26;1191;-47
2024/04/17 06:07:04;;;;;;;;;;;;;;;16.44;47.75;99340.25;5387841;26;1330;-44
2024/04/17 06:09:30;;;;;;;;;;;;;;;16.40;47.13;99345.53;5387908;26;976;-49
2024/04/17 06:11:55;;;;;;;;;;;;;;;16.37;46.76;99329.69;5387402;26;1125;-47
2024/04/17 06:14:21;;;;;;;;;;;;;;;16.39;46.45;99321.97;5388278;26;1383;-43
2024/04/17 06:16:47;;;;;;;;;;;;;;;16.99;47.82;99322.84;5387980;26;1211;-46
2024/04/17 06:19:14;;;;;;;;;;;;;;;16.89;48.78;99320.34;5387823;26;1834;-49
2024/04/17 06:21:39;;;;;;;;;;;;;;;16.61;48.31;99320.41;5387302;26;1271;-42
2024/04/17 06:24:05;;;;;;;;;;;;;;;16.48;47.98;99310.25;5388054;26;1269;-48
2024/04/17 06:26:30;;;;;;;;;;;;;;;16.41;47.32;99303.28;5387900;26;1346;-44
2024/04/17 06:28:56;;;;;;;;;;;;;;;16.36;47.10;99295.16;5387590;26;1543;-42
2024/04/17 06:31:22;;;;;;;;;;;;;;;16.35;46.70;99296.25;5387524;26;1190;-44
2024/04/17 06:33:47;;;;;;;;;;;;;;;16.23;46.64;99301.50;5387276;26;1144;-44
2024/04/17 06:36:13;;;;;;;;;;;;;;;16.29;46.39;99294.75;5387718;26;1216;-43
2024/04/17 06:38:38;;;;;;;;;;;;;;;16.85;47.91;99300.91;5387543;26;1834;-46
2024/04/17 06:41:04;;;;;;;;;;;;;;;16.46;47.98;99307.03;5387893;26;1247;-45
2024/04/17 06:43:29;;;;;;;;;;;;;;;16.34;47.76;99302.06;5388421;26;1286;-47
2024/04/17 06:45:55;;;;;;;;;;;;;;;16.39;46.97;99285.50;5387396;26;1247;-45
2024/04/17 06:48:21;;;;;;;;;;;;;;;16.32;46.75;99287.84;5387666;26;1290;-44
2024/04/17 06:50:46;;;;;;;;;;;;;;;16.66;47.47;99284.63;5387166;26;1172;-46
2024/04/17 06:53:12;;;;;;;;;;;;;;;16.85;48.55;99283.63;5386367;26;1131;-45
2024/04/17 06:55:37;;;;;;;;;;;;;;;16.56;48.31;99274.69;5387299;26;1287;-46
2024/04/17 06:58:03;;;;;;;;;;;;;;;16.45;47.58;99280.69;5386954;26;1063;-48
2024/04/17 07:00:35;;;;;;;;;;;;;;;16.41;47.20;99275.84;5387457;26;1826;-48
2024/04/17 07:03:00;;;;;;;;;;;;;;;16.39;46.88;99283.56;5387126;26;1311;-47
2024/04/17 07:05:26;;;;;;;;;;;;;;;17.17;47.94;99268.03;5387405;26;1180;-47
2024/04/17 07:07:52;;;;;;;;;;;;;;;16.76;48.71;99269.84;5386951;26;1315;-44
2024/04/17 07:10:17;;;;;;;;;;;;;;;16.36;49.64;99267.72;5386534;26;1542;-45
2024/04/17 07:12:43;;;;;;;;;;;;;;;16.31;49.19;99265.06;5386662;26;1173;-46
2024/04/17 07:15:09;;;;;;;;;;;;;;;16.31;48.99;99267.81;5386699;26;1167;-47
2024/04/17 07:17:34;;;;;;;;;;;;;;;16.49;47.87;99259.75;5387105;26;1136;-45
2024/04/17 07:20:00;;;;;;;;;;;;;;;16.41;47.65;99259.38;5382787;26;1885;-42
2024/04/17 07:22:25;;;;;;;;;;;;;;;16.38;47.41;99259.19;5383765;26;1107;-46
2024/04/17 07:24:51;;;;;;;;;;;;;;;17.33;49.70;99266.50;5384982;26;1632;-47
2024/04/17 07:27:17;;;;;;;;;;;;;;;16.76;49.74;99267.91;5385797;26;1385;-48
2024/04/17 07:29:42;;;;;;;;;;;;;;;16.51;48.95;99263.81;5385219;26;1172;-47
2024/04/17 07:32:08;;;;;;;;;;;;;;;16.60;48.04;99277.59;5385980;26;1107;-48
2024/04/17 07:34:33;;;;;;;;;;;;;;;16.51;47.63;99276.72;5385989;26;1342;-47
2024/04/17 07:36:59;;;;;;;;;;;;;;;16.46;47.27;99277.66;5386961;26;1223;-44
2024/04/17 07:39:24;;;;;;;;;;;;;;;17.12;48.87;99268.97;5386438;26;1860;-48
2024/04/17 07:41:50;;;;;;;;;;;;;;;16.79;49.43;99273.88;5386194;26;1229;-44
2024/04/17 07:44:16;;;;;;;;;;;;;;;16.63;48.90;99279.72;5385853;26;1368;-47
2024/04/17 07:46:42;;;;;;;;;;;;;;;16.52;48.23;99275.59;5384558;26;1528;-46
2024/04/17 07:49:07;;;;;;;;;;;;;;;16.46;47.95;99274.09;5349864;26;1453;-44
2024/04/17 07:51:33;;;;;;;;;;;;;;;16.47;47.41;99264.75;5372852;26;1156;-47
2024/04/17 07:53:59;;;;;;;;;;;;;;;16.40;47.18;99265.97;5386991;26;1298;-47
2024/04/17 07:56:24;;;;;;;;;;;;;;;16.40;47.04;99260.50;5385916;26;1532;-45
2024/04/17 07:58:50;;;;;;;;;;;;;;;16.43;46.66;99262.59;5385660;26;1872;-48
2024/04/17 08:01:16;;;;;;;;;;;;;;;16.38;46.63;99265.50;5385964;26;1476;-48
2024/04/17 08:03:43;;;;;;;;;;;;;;;16.29;46.53;99261.84;5386037;26;1156;-45
2024/04/17 08:06:09;;;;;;;;;;;;;;;16.19;46.76;99257.41;5385469;26;1249;-47
2024/04/17 08:08:35;;;;;;;;;;;;;;;16.35;46.35;99257.06;5385895;26;1265;-46
2024/04/17 08:11:01;;;;;;;;;;;;;;;16.19;46.53;99262.09;5384561;26;1636;-48
2024/04/17 08:13:27;;;;;;;;;;;;;;;16.31;46.36;99259.59;5386226;26;1187;-43
2024/04/17 08:15:53;;;;;;;;;;;;;;;16.15;46.48;99261.88;5354408;26;2372;-45
2024/04/17 08:18:18;;;;;;;;;;;;;;;17.20;48.05;99270.16;5386116;26;1321;-43
2024/04/17 08:20:44;;;;;;;;;;;;;;;16.68;48.92;99246.69;5386098;26;1829;-45
2024/04/17 08:23:10;;;;;;;;;;;;;;;16.56;48.34;99243.69;5385634;26;1075;-44
2024/04/17 08:25:35;;;;;;;;;;;;;;;16.40;48.27;99251.47;5385893;26;1180;-44
2024/04/17 08:28:01;;;;;;;;;;;;;;;16.38;47.58;99243.53;5386054;26;1251;-46
2024/04/17 08:30:27;;;;;;;;;;;;;;;16.31;47.39;99245.88;5385929;26;1318;-42
2024/04/17 08:32:53;;;;;;;;;;;;;;;16.30;47.03;99241.53;5385508;26;1276;-47
2024/04/17 08:35:18;;;;;;;;;;;;;;;16.28;46.97;99249.25;5385354;26;1160;-45
2024/04/17 08:37:44;;;;;;;;;;;;;;;16.31;46.60;99245.88;5384243;26;1302;-45
2024/04/17 08:40:10;;;;;;;;;;;;;;;16.20;46.85;99234.34;5385316;26;1822;-47
2024/04/17 08:42:36;;;;;;;;;;;;;;;16.21;47.00;99227.72;5351031;26;1286;-43
2024/04/17 08:45:05;;;;;;;;;;;;;;;16.44;47.14;99244.25;5385512;26;1404;-47
2024/04/17 08:47:30;;;;;;;;;;;;;;;16.75;48.29;99227.03;5385397;26;1134;-49
2024/04/17 08:49:56;;;;;;;;;;;;;;;16.48;48.31;99230.69;5385991;26;1255;-48
2024/04/17 08:52:21;;;;;;;;;;;;;;;16.40;47.78;99230.31;5386118;26;1168;-48
2024/04/17 08:54:47;;;;;;;;;;;;;;;16.37;47.48;99213.69;5354600;26;1304;-44
2024/04/17 08:57:12;;;;;;;;;;;;;;;16.34;47.14;99226.09;5385757;26;1137;-47
2024/04/17 08:59:38;;;;;;;;;;;;;;;16.31;47.50;99218.44;5354577;26;1860;-42
2024/04/17 09:02:04;;;;;;;;;;;;;;;16.81;48.93;99227.72;5385907;26;1168;-44
2024/04/17 09:04:29;;;;;;;;;;;;;;;16.56;48.47;99221.72;5354972;26;1378;-44
2024/04/17 09:06:55;;;;;;;;;;;;;;;16.42;48.19;99205.31;5354359;26;1267;-45
2024/04/17 09:09:21;;;;;;;;;;;;;;;16.47;47.44;99216.19;5385222;26;1350;-48
2024/04/17 09:11:46;;;;;;;;;;;;;;;16.92;48.49;99218.94;5384131;26;1198;-47
2024/04/17 09:14:12;;;;;;;;;;;;;;;16.81;48.85;99214.00;5383988;26;1272;-48
2024/04/17 09:16:39;;;;;;;;;;;;;;;16.60;48.46;99206.25;5384126;26;1239;-46
2024/04/17 09:19:06;;;;;;;;;;;;;;;16.53;48.02;99194.91;5384913;26;1833;-45
2024/04/17 09:21:31;;;;;;;;;;;;;;;16.52;47.51;99188.63;5384431;26;1236;-47
2024/04/17 09:23:57;;;;;;;;;;;;;;;16.46;47.21;99172.59;5354000;26;1061;-47
2024/04/17 09:26:22;;;;;;;;;;;;;;;16.39;47.33;99167.53;5384915;26;1240;-49
2024/04/17 09:28:49;;;;;;;;;;;;;;;16.46;46.92;99183.56;5385294;26;1243;-46
2024/04/17 09:31:14;;;;;;;;;;;;;;;16.46;46.70;99172.59;5384732;26;1477;-46
2024/04/17 09:33:44;;;;;;;;;;;;;;;16.47;46.72;99174.22;5354443;26;1248;-46
2024/04/17 09:36:09;;;;;;;;;;;;;;;16.41;46.52;99174.34;5353021;26;1199;-46
2024/04/17 09:38:35;;;;;;;;;;;;;;;16.33;46.64;99174.28;5382561;26;1838;-48
2024/04/17 09:41:01;;;;;;;;;;;;;;;16.31;46.72;99166.34;5384184;26;1547;-48
2024/04/17 09:43:26;;;;;;;;;;;;;;;16.43;46.90;99169.34;5384941;26;1422;-46
2024/04/17 09:45:58;;;;;;;;;;;;;;;16.87;48.61;99160.56;5384187;26;1180;-44
2024/04/17 09:48:25;;;;;;;;;;;;;;;16.53;48.49;99172.97;5383815;26;1188;-48
2024/04/17 09:50:50;;;;;;;;;;;;;;;16.51;47.79;99159.56;5384670;26;1184;-44
2024/04/17 09:53:16;;;;;;;;;;;;;;;16.52;47.47;99160.34;5354272;26;1183;-47
2024/04/17 09:55:41;;;;;;;;;;;;;;;16.47;47.17;99157.75;5384509;26;1248;-42
2024/04/17 09:58:07;;;;;;;;;;;;;;;16.42;46.91;99148.53;5353819;26;1216;-43
2024/04/17 10:00:32;;;;;;;;;;;;;;;16.33;47.14;99147.66;5384153;26;1825;-46
2024/04/17 10:02:59;;;;;;;;;;;;;;;16.41;46.78;99157.88;5354019;26;1177;-45
2024/04/17 10:05:25;;;;;;;;;;;;;;;16.48;46.50;99153.88;5384602;26;1248;-45
2024/04/17 10:07:50;;;;;;;;;;;;;;;16.34;46.72;99153.94;5384267;26;1168;-48
2024/04/17 10:10:16;;;;;;;;;;;;;;;16.35;46.43;99148.13;5353179;26;1145;-44
2024/04/17 10:12:43;;;;;;;;;;;;;;;16.34;46.62;99165.72;5353551;26;1188;-47
2024/04/17 10:15:09;;;;;;;;;;;;;;;16.42;46.30;99161.41;5383920;26;1136;-46
2024/04/17 10:17:35;;;;;;;;;;;;;;;17.43;48.15;99170.06;5384217;26;1255;-44
2024/04/17 10:20:00;;;;;;;;;;;;;;;16.76;48.92;99171.03;5384079;26;1837;-45
2024/04/17 10:22:28;;;;;;;;;;;;;;;16.58;48.57;99167.34;5360805;26;1229;-48
2024/04/17 10:25:03;;;;;;;;;;;;;;;16.59;47.84;99186.25;5383843;26;1294;-45
2024/04/17 10:27:28;;;;;;;;;;;;;;;16.52;47.67;99172.16;5384716;26;1486;-46
2024/04/17 10:30:03;;;;;;;;;;;;;;;16.54;47.15;99183.63;5387350;26;1421;-46
2024/04/17 10:32:30;;;;;;;;;;;;;;;16.50;47.08;99173.59;5377153;26;1333;-45
2024/04/17 10:34:56;;;;;;;;;;;;;;;16.46;47.00;99178.06;5387045;26;1306;-45
2024/04/17 10:37:24;;;;;;;;;;;;;;;16.45;46.80;99176.44;5387765;26;1492;-47
2024/04/17 10:39:50;;;;;;;;;;;;;;;16.45;46.68;99188.22;5357174;26;1864;-47
2024/04/17 10:42:18;;;;;;;;;;;;;;;16.45;46.72;99192.91;5385532;26;1511;-46
2024/04/17 10:44:50;;;;;;;;;;;;;;;16.38;46.71;99180.44;5387588;26;1219;-47
2024/04/17 10:47:19;;;;;;;;;;;;;;;16.37;46.45;99173.34;5387333;26;1302;-48
2024/04/17 10:49:44;;;;;;;;;;;;;;;16.50;46.80;99179.06;5387175;26;1262;-47
2024/04/17 10:52:10;;;;;;;;;;;;;;;16.90;48.17;99181.91;5356668;26;1421;-47
2024/04/17 10:54:35;;;;;;;;;;;;;;;16.60;48.28;99176.06;5386902;26;1484;-45
2024/04/17 10:57:04;;;;;;;;;;;;;;;16.59;47.59;99166.22;5387038;26;1429;-47
2024/04/17 10:59:30;;;;;;;;;;;;;;;16.52;47.41;99171.34;5355757;26;1873;-45
2024/04/17 11:01:55;;;;;;;;;;;;;;;16.47;47.21;99179.72;5387063;26;1534;-46
2024/04/17 11:04:23;;;;;;;;;;;;;;;16.45;47.06;99162.72;5387682;26;1213;-45
2024/04/17 11:06:49;;;;;;;;;;;;;;;16.47;46.68;99149.53;5386950;26;1503;-48
2024/04/17 11:09:14;;;;;;;;;;;;;;;16.36;47.01;99148.97;5387263;26;1468;-46
2024/04/17 11:11:43;;;;;;;;;;;;;;;16.41;46.76;99152.38;5386292;26;1339;-46
2024/04/17 11:14:12;;;;;;;;;;;;;;;16.41;46.42;99138.66;5386839;26;1271;-44
2024/04/17 11:16:38;;;;;;;;;;;;;;;16.41;46.75;99135.94;5365427;26;1351;-47
2024/04/17 11:19:03;;;;;;;;;;;;;;;16.38;47.12;99133.00;5386611;26;1863;-47
2024/04/17 11:21:29;;;;;;;;;;;;;;;17.53;48.15;99133.22;5384827;26;1226;-46
2024/04/17 11:23:54;;;;;;;;;;;;;;;16.90;48.94;99121.53;5353740;26;1236;-48
2024/04/17 11:26:20;;;;;;;;;;;;;;;16.73;48.48;99117.56;5387454;26;1144;-45
2024/04/17 11:28:46;;;;;;;;;;;;;;;16.63;48.14;99111.53;5386444;26;1290;-42
2024/04/17 11:31:13;;;;;;;;;;;;;;;16.59;47.67;99100.34;5386402;26;1298;-43
2024/04/17 11:33:39;;;;;;;;;;;;;;;16.56;47.60;99096.31;5386460;26;1447;-47
2024/04/17 11:36:14;;;;;;;;;;;;;;;16.62;47.17;99087.94;5386370;26;1079;-47
2024/04/17 11:38:43;;;;;;;;;;;;;;;16.59;47.03;99079.22;5385504;26;1828;-47
2024/04/17 11:41:10;;;;;;;;;;;;;;;16.48;46.96;99071.56;5385319;26;1415;-45
2024/04/17 11:43:35;;;;;;;;;;;;;;;16.59;46.70;99073.75;5385575;26;1188;-44
2024/04/17 11:46:01;;;;;;;;;;;;;;;17.04;47.45;99074.75;5348200;26;1160;-49
2024/04/17 11:48:26;;;;;;;;;;;;;;;16.92;48.65;99080.84;5376515;26;1136;-47
2024/04/17 11:50:52;;;;;;;;;;;;;;;16.79;48.16;99065.25;5386231;26;1513;-46
2024/04/17 11:53:17;;;;;;;;;;;;;;;16.63;47.73;99062.13;5386710;26;1278;-48
2024/04/17 11:55:42;;;;;;;;;;;;;;;16.56;47.72;99062.56;5383415;26;1370;-47
2024/04/17 11:58:08;;;;;;;;;;;;;;;16.73;47.00;99062.66;5384852;26;1351;-43
2024/04/17 12:00:33;;;;;;;;;;;;;;;16.62;47.15;99055.84;5354562;26;1838;-48
2024/04/17 12:02:59;;;;;;;;;;;;;;;16.86;47.49;99054.66;5385901;26;1223;-48
2024/04/17 12:05:25;;;;;;;;;;;;;;;16.80;47.55;99072.38;5386233;26;1473;-44
2024/04/17 12:07:50;;;;;;;;;;;;;;;16.70;47.34;99065.22;5386458;26;1189;-49
2024/04/17 12:10:17;;;;;;;;;;;;;;;16.63;47.00;99062.13;5386922;26;1120;-46
2024/04/17 12:12:42;;;;;;;;;;;;;;;16.71;46.64;99047.63;5386321;26;1043;-45
2024/04/17 12:15:08;;;;;;;;;;;;;;;16.62;46.86;99044.88;5386105;26;1344;-46
2024/04/17 12:17:33;;;;;;;;;;;;;;;16.55;46.62;99037.06;5386262;26;1263;-47
2024/04/17 12:19:59;;;;;;;;;;;;;;;17.16;47.38;99069.44;5385442;26;1874;-46
2024/04/17 12:22:24;;;;;;;;;;;;;;;17.02;48.11;99053.09;5385867;26;1350;-47
2024/04/17 12:27:34;;;;;;;;;;;;;;;16.75;47.52;99032.16;5385577;26;1512;-47
2024/04/17 12:29:59;;;;;;;;;;;;;;;16.70;47.23;99040.53;5384995;26;1496;-48
2024/04/17 12:32:25;;;;;;;;;;;;;;;16.65;47.14;99016.78;5385144;26;1278;-46
2024/04/17 12:34:50;;;;;;;;;;;;;;;16.58;46.93;99024.66;5385191;26;1199;-46
2024/04/17 12:37:16;;;;;;;;;;;;;;;16.62;46.67;99022.91;5385182;26;1330;-45
2024/04/17 12:39:42;;;;;;;;;;;;;;;16.66;46.43;99018.41;5385139;26;1822;-50
2024/04/17 12:42:07;;;;;;;;;;;;;;;16.64;46.39;99008.88;5385643;26;1300;-46
2024/04/17 12:44:33;;;;;;;;;;;;;;;16.53;46.43;99013.81;5385794;26;1263;-45
2024/04/17 12:46:58;;;;;;;;;;;;;;;16.63;46.19;98997.06;5385781;26;1176;-44
2024/04/17 12:49:24;;;;;;;;;;;;;;;16.63;46.05;99004.50;5385426;26;1104;-48
2024/04/17 12:51:49;;;;;;;;;;;;;;;16.54;46.11;99007.22;5384255;26;1248;-49